MST,Max TemperatureF,Mean TemperatureF,Min TemperatureF,Max Dew PointF,MeanDew PointF,Min DewpointF,Max Humidity, Mean Humidity, Min Humidity, Max Sea Level PressureIn, Mean Sea Level PressureIn, Min Sea Level PressureIn, Max VisibilityMiles, Mean VisibilityMiles, Min VisibilityMiles, Max Wind SpeedMPH, Mean Wind SpeedMPH, Max Gust SpeedMPH,PrecipitationIn, CloudCover, Events, WindDirDegrees
2012-12-1,66,52,38,24,21,19,52,36,19,30.15,30.08,30.01,10,10,10,10,3,12,0.00,4,,107
2012-12-2,63,48,33,22,17,9,56,34,12,30.18,30.05,29.94,10,10,10,12,4,14,0.00,3,,137
2012-12-3,65,51,37,31,24,12,50,38,25,30.14,30.04,29.95,10,10,10,15,4,22,0.00,3,,10
2012-12-4,58,46,34,31,26,20,70,48,25,30.40,30.30,30.15,10,10,10,9,3,12,0.00,4,,343
2012-12-5,61,48,35,22,20,18,56,38,20,30.32,30.15,29.98,10,10,10,9,3,10,0.00,3,,134
2012-12-6,62,48,34,21,19,18,56,38,20,30.00,29.91,29.81,10,10,10,9,3,10,0.00,4,,124
2012-12-7,62,49,35,28,23,18,48,38,27,29.94,29.86,29.78,10,10,10,14,4,17,0.00,2,,314
2012-12-8,59,45,30,25,20,10,63,41,19,29.94,29.86,29.76,10,10,10,20,5,24,0.00,2,,217
2012-12-9,54,39,24,21,11,-9,56,38,19,30.22,29.96,29.76,10,10,9,33,12,39,0.00,4,,267
2012-12-10,39,28,17,9,-1,-8,37,28,19,30.30,30.17,30.06,10,10,10,14,6,17,0.00,1,,343
2012-12-11,44,34,23,11,9,5,50,36,22,30.17,30.11,30.06,10,10,10,17,5,21,0.00,1,,326
2012-12-12,47,34,20,9,7,5,57,38,19,30.20,30.14,30.07,10,10,10,9,3,13,0.00,1,,47
2012-12-13,54,38,22,17,11,4,46,33,20,30.20,30.07,29.91,10,10,10,12,5,15,0.00,2,,49
2012-12-14,45,40,35,38,28,17,85,61,36,30.01,29.79,29.69,10,10,7,28,12,37,0.06,6,Rain,215
2012-12-15,44,36,28,32,27,23,89,67,45,30.00,29.92,29.83,10,10,2,30,5,35,0.03,7,Rain-Snow,169
2012-12-16,41,35,28,32,23,18,89,69,48,30.12,29.98,29.90,10,10,10,21,7,25,0.00,5,,342
2012-12-17,44,32,20,25,21,16,84,65,45,30.17,30.09,30.00,10,10,10,9,3,12,0.00,0,,323
2012-12-18,45,35,24,28,25,21,88,67,45,30.02,29.88,29.67,10,10,10,8,3,9,0.00,4,,7
2012-12-19,42,33,23,33,18,5,79,56,32,30.37,29.85,29.53,10,10,10,43,17,52,T,4,Rain-Snow,283
2012-12-20,37,26,14,7,4,0,67,45,22,30.62,30.52,30.38,10,10,10,18,5,24,0.00,2,,351
2012-12-21,44,30,15,8,4,1,56,36,16,30.51,30.41,30.28,10,10,10,12,3,14,0.00,2,,345
2012-12-22,47,34,21,8,6,-1,52,33,14,30.34,30.25,30.14,10,10,10,14,5,16,0.00,5,,14
2012-12-23,52,37,22,18,12,7,55,39,22,30.24,30.13,30.02,10,10,10,9,2,12,0.00,3,,4
2012-12-24,51,40,28,28,19,15,64,44,24,29.99,29.83,29.67,10,10,10,28,7,33,0.00,6,,244
2012-12-25,41,34,27,23,14,11,61,47,33,30.13,30.01,29.73,10,10,10,23,12,29,0.00,5,,358
2012-12-26,41,32,23,16,15,14,74,56,37,30.09,29.94,29.80,10,10,10,18,7,24,0.00,5,,157
2012-12-27,40,32,24,20,16,12,63,48,33,29.92,29.82,29.74,10,10,10,23,7,30,0.00,4,,275
2012-12-28,37,28,19,18,13,8,68,53,38,30.31,30.11,29.94,10,10,10,20,7,28,0.00,4,,347
2012-12-29,38,26,13,10,7,4,67,47,27,30.41,30.30,30.18,10,10,10,12,4,14,0.00,2,,346
2012-12-30,42,34,25,25,11,5,61,45,29,30.18,30.01,29.85,10,10,10,9,3,18,0.00,7,,4
2012-12-31,42,35,28,31,23,11,92,61,30,30.10,29.91,29.80,10,8,2,23,10,30,0.03,7,Snow,224